Time;durP1;ratioP1;P1;durP2;ratioP2;P2;SDS_P1;SDS_P2;PMS_P1;PMS_P2;Temp;Humidity;BMP_temperature;BMP_pressure;BME280_temperature;BME280_humidity;BME280_pressure;Samples;Min_cycle;Max_cycle;Signal;HPM_P1;HPM_P2
2024/03/04 00:00:36;;;;;;;11.30;5.70;;;10.60;99.90;;;;;;5028305;28;20108;-87
2024/03/04 00:03:02;;;;;;;17.13;6.38;;;10.60;99.90;;;;;;5030861;28;20037;-89
2024/03/04 00:05:28;;;;;;;18.50;7.32;;;10.60;99.90;;;;;;5031035;28;20025;-88
2024/03/04 00:07:53;;;;;;;13.85;7.13;;;10.60;99.90;;;;;;5029023;28;20067;-89
2024/03/04 00:10:20;;;;;;;9.65;5.78;;;10.60;99.90;;;;;;5030902;28;20018;-88
2024/03/04 00:12:46;;;;;;;12.40;7.18;;;10.60;99.90;;;;;;5030657;28;20033;-88
2024/03/04 00:15:13;;;;;;;13.13;6.20;;;10.60;99.90;;;;;;5031950;28;20018;-88
2024/03/04 00:17:40;;;;;;;15.23;7.53;;;10.60;99.90;;;;;;5029789;28;20017;-88
2024/03/04 00:20:08;;;;;;;12.15;6.68;;;10.60;99.90;;;;;;5030911;28;20670;-89
2024/03/04 00:22:33;;;;;;;12.38;7.25;;;10.60;99.90;;;;;;5031948;28;20072;-89
2024/03/04 00:24:59;;;;;;;11.85;6.35;;;10.60;99.90;;;;;;5030667;28;20061;-88
2024/03/04 00:27:25;;;;;;;18.13;6.47;;;10.60;99.90;;;;;;5030571;28;20033;-87
2024/03/04 00:29:51;;;;;;;12.88;6.30;;;10.60;99.90;;;;;;5031489;28;20017;-88
2024/03/04 00:32:16;;;;;;;15.27;7.38;;;10.60;99.90;;;;;;5035596;28;20036;-88
2024/03/04 00:34:42;;;;;;;13.48;6.90;;;10.60;99.90;;;;;;5027346;28;20029;-89
2024/03/04 00:37:08;;;;;;;13.50;6.55;;;10.60;99.90;;;;;;5029966;28;20105;-88
2024/03/04 00:39:35;;;;;;;14.90;6.70;;;10.60;99.90;;;;;;5033839;28;20754;-89
2024/03/04 00:42:00;;;;;;;13.30;7.10;;;10.60;99.90;;;;;;5033379;28;20046;-89
2024/03/04 00:44:26;;;;;;;13.82;6.18;;;10.50;99.90;;;;;;5034274;28;20087;-89
2024/03/04 00:46:51;;;;;;;12.90;6.63;;;10.60;99.90;;;;;;5033480;28;20036;-88
2024/03/04 00:49:17;;;;;;;14.02;6.43;;;10.60;99.90;;;;;;5031667;28;20025;-88
2024/03/04 00:51:42;;;;;;;12.02;6.50;;;10.60;99.90;;;;;;5034487;28;20789;-89
2024/03/04 00:54:08;;;;;;;21.15;6.38;;;10.60;99.90;;;;;;5026155;28;20014;-88
2024/03/04 00:56:34;;;;;;;11.35;5.95;;;10.60;99.90;;;;;;5032192;28;20095;-88
2024/03/04 00:59:00;;;;;;;12.40;5.38;;;10.50;99.90;;;;;;5034260;28;20030;-87
2024/03/04 01:01:25;;;;;;;13.35;6.85;;;10.60;99.90;;;;;;5034489;28;20033;-88
2024/03/04 01:03:51;;;;;;;14.98;6.68;;;10.60;99.90;;;;;;5034016;28;20022;-88
2024/03/04 01:06:16;;;;;;;14.20;5.72;;;10.60;99.90;;;;;;5031175;28;20105;-88
2024/03/04 01:08:43;;;;;;;12.45;6.43;;;10.60;99.90;;;;;;5032679;28;20041;-88
2024/03/04 01:11:08;;;;;;;10.73;5.85;;;10.60;99.90;;;;;;5034026;28;20032;-88
2024/03/04 01:13:34;;;;;;;11.68;5.78;;;10.60;99.90;;;;;;5030917;28;20109;-89
2024/03/04 01:15:59;;;;;;;12.30;6.35;;;10.50;99.90;;;;;;5029883;28;20492;-89
2024/03/04 01:18:25;;;;;;;11.10;5.72;;;10.60;99.90;;;;;;5034430;28;20060;-88
2024/03/04 01:20:52;;;;;;;12.77;6.07;;;10.60;99.90;;;;;;5045286;28;20030;-89
2024/03/04 01:23:17;;;;;;;10.90;6.40;;;10.60;99.90;;;;;;5033836;28;20048;-88
2024/03/04 01:25:44;;;;;;;11.95;5.88;;;10.60;99.90;;;;;;5033730;28;20064;-89
2024/03/04 01:28:11;;;;;;;12.07;5.35;;;10.60;99.90;;;;;;5031861;28;21238;-88
2024/03/04 01:30:38;;;;;;;11.57;5.78;;;10.60;99.90;;;;;;5033216;28;20026;-88
2024/03/04 01:33:06;;;;;;;14.75;6.95;;;10.50;99.90;;;;;;5033463;28;20025;-88
2024/03/04 01:35:33;;;;;;;9.45;5.93;;;10.60;99.90;;;;;;5033571;28;20025;-88
2024/03/04 01:37:59;;;;;;;14.13;6.35;;;10.60;99.90;;;;;;5033405;28;20026;-88
2024/03/04 01:40:25;;;;;;;9.18;5.65;;;10.60;99.90;;;;;;5033649;28;20032;-88
2024/03/04 01:42:54;;;;;;;13.52;6.20;;;10.60;99.90;;;;;;5028809;28;20022;-89
2024/03/04 01:45:26;;;;;;;13.25;6.72;;;10.60;99.90;;;;;;5031095;28;20032;-88
2024/03/04 01:48:03;;;;;;;16.55;6.05;;;10.60;99.90;;;;;;5032113;28;20029;-88
2024/03/04 01:50:33;;;;;;;11.57;6.00;;;10.60;99.90;;;;;;5018492;28;20026;-87
2024/03/04 01:52:59;;;;;;;12.38;6.53;;;10.60;99.90;;;;;;5031148;28;20369;-88
2024/03/04 01:55:28;;;;;;;17.52;6.82;;;10.60;99.90;;;;;;5022900;28;20022;-88
2024/03/04 01:57:55;;;;;;;11.82;6.18;;;10.60;99.90;;;;;;5024506;28;20076;-88
2024/03/04 02:00:23;;;;;;;13.75;6.68;;;10.50;99.90;;;;;;5033385;28;20808;-89
2024/03/04 02:02:53;;;;;;;13.20;5.88;;;10.50;99.90;;;;;;5026085;28;20026;-88
2024/03/04 02:05:19;;;;;;;10.77;5.97;;;10.60;99.90;;;;;;5026184;28;20014;-88
2024/03/04 02:07:45;;;;;;;13.48;5.88;;;10.50;99.90;;;;;;5032503;28;20617;-88
2024/03/04 02:10:15;;;;;;;17.17;7.30;;;10.50;99.90;;;;;;5036625;28;20124;-88
2024/03/04 02:12:41;;;;;;;12.00;5.72;;;10.50;99.90;;;;;;5033016;28;20014;-88
2024/03/04 02:15:08;;;;;;;11.77;6.22;;;10.50;99.90;;;;;;5029844;28;20080;-88
2024/03/04 02:17:34;;;;;;;13.23;6.57;;;10.50;99.90;;;;;;5043992;28;20056;-88
2024/03/04 02:20:04;;;;;;;15.15;6.80;;;10.50;99.90;;;;;;5031457;28;20057;-88
2024/03/04 02:22:30;;;;;;;;;;;10.50;99.90;;;;;;5030713;28;20021;-88
2024/03/04 02:24:56;;;;;;;13.05;5.75;;;10.50;99.90;;;;;;5029857;28;20272;-89
2024/03/04 02:27:22;;;;;;;12.20;6.68;;;10.50;99.90;;;;;;5029225;28;20121;-88
2024/03/04 02:29:50;;;;;;;12.38;5.82;;;10.50;99.90;;;;;;5029555;28;20092;-88
2024/03/04 02:32:16;;;;;;;14.23;6.53;;;10.50;99.90;;;;;;5021658;28;20026;-87
2024/03/04 02:34:45;;;;;;;14.93;6.57;;;10.50;99.90;;;;;;5032669;28;20021;-89
2024/03/04 02:37:12;;;;;;;15.70;7.25;;;10.50;99.90;;;;;;5032569;28;20026;-89
2024/03/04 02:39:39;;;;;;;12.70;6.25;;;10.50;99.90;;;;;;5028499;28;20017;-89
2024/03/04 02:42:05;;;;;;;13.25;6.25;;;10.50;99.90;;;;;;5032255;28;20028;-88
2024/03/04 02:44:31;;;;;;;15.90;7.03;;;10.50;99.90;;;;;;5021478;28;20034;-88
2024/03/04 02:46:57;;;;;;;13.05;6.68;;;10.50;99.90;;;;;;5041602;28;20036;-89
2024/03/04 02:49:22;;;;;;;13.45;6.30;;;10.50;99.90;;;;;;5032341;28;20037;-88
2024/03/04 02:51:48;;;;;;;11.38;6.28;;;10.50;99.90;;;;;;5032244;28;20125;-88
2024/03/04 02:54:14;;;;;;;11.98;6.50;;;10.50;99.90;;;;;;5031441;28;20067;-88
2024/03/04 02:56:39;;;;;;;16.35;7.38;;;10.50;99.90;;;;;;5030625;28;20035;-89
2024/03/04 02:59:05;;;;;;;11.32;6.40;;;10.50;99.90;;;;;;5032144;28;20498;-87
2024/03/04 03:01:31;;;;;;;18.20;7.78;;;10.50;99.90;;;;;;5032127;28;20034;-87
2024/03/04 03:03:57;;;;;;;14.43;7.28;;;10.50;99.90;;;;;;5026047;28;20084;-89
2024/03/04 03:06:23;;;;;;;14.57;6.40;;;10.50;99.90;;;;;;5030233;28;20096;-89
2024/03/04 03:08:49;;;;;;;17.33;7.47;;;10.50;99.90;;;;;;5031738;28;20052;-88
2024/03/04 03:11:16;;;;;;;13.35;6.43;;;10.50;99.90;;;;;;5024165;28;20130;-88
2024/03/04 03:13:44;;;;;;;12.23;7.15;;;10.50;99.90;;;;;;5030422;28;20108;-88
2024/03/04 03:16:20;;;;;;;18.77;7.68;;;10.50;99.90;;;;;;5031884;28;20029;-88
2024/03/04 03:18:46;;;;;;;13.52;7.10;;;10.50;99.90;;;;;;5040297;28;20033;-88
2024/03/04 03:21:12;;;;;;;14.50;7.22;;;10.50;99.90;;;;;;5032397;28;20032;-89
2024/03/04 03:23:41;;;;;;;13.90;7.25;;;10.50;99.90;;;;;;5031031;28;20025;-88
2024/03/04 03:26:06;;;;;;;13.48;6.68;;;10.50;99.90;;;;;;5029960;28;20026;-88
2024/03/04 03:28:32;;;;;;;15.82;7.35;;;10.50;99.90;;;;;;5019767;28;20523;-89
2024/03/04 03:30:57;;;;;;;11.98;7.18;;;10.50;99.90;;;;;;5031497;28;20025;-88
2024/03/04 03:33:23;;;;;;;13.10;7.47;;;10.50;99.90;;;;;;5019587;28;20033;-89
2024/03/04 03:35:48;;;;;;;11.73;6.15;;;10.50;99.90;;;;;;5031440;28;20088;-88
2024/03/04 03:38:14;;;;;;;15.00;6.90;;;10.50;99.90;;;;;;5028915;28;20018;-89
2024/03/04 03:40:39;;;;;;;17.30;7.63;;;10.50;99.90;;;;;;5026275;28;20407;-88
2024/03/04 03:43:05;;;;;;;14.10;7.18;;;10.50;99.90;;;;;;5028750;28;20030;-88
2024/03/04 03:45:32;;;;;;;16.55;7.00;;;10.40;99.90;;;;;;5031056;28;20377;-89
2024/03/04 03:47:57;;;;;;;15.18;6.88;;;10.50;99.90;;;;;;5030979;28;20402;-88
2024/03/04 03:50:23;;;;;;;16.15;6.82;;;10.50;99.90;;;;;;5031263;28;20017;-90
2024/03/04 03:52:48;;;;;;;15.77;7.75;;;10.50;99.90;;;;;;5031131;28;20455;-88
2024/03/04 03:55:14;;;;;;;14.30;7.60;;;10.50;99.90;;;;;;5029869;28;20219;-89
2024/03/04 03:57:41;;;;;;;20.17;7.80;;;10.40;99.90;;;;;;5030494;28;20048;-88
2024/03/04 04:00:10;;;;;;;13.82;6.80;;;10.40;99.90;;;;;;5028819;28;20491;-88
2024/03/04 04:02:36;;;;;;;14.95;7.63;;;10.50;99.90;;;;;;5032111;28;20025;-89
2024/03/04 04:05:02;;;;;;;12.80;7.78;;;10.40;99.90;;;;;;5030054;28;20029;-87
2024/03/04 04:07:28;;;;;;;11.65;7.15;;;10.40;99.90;;;;;;5030926;28;20031;-88
2024/03/04 04:09:53;;;;;;;17.52;8.10;;;10.40;99.90;;;;;;5027489;28;20104;-87
2024/03/04 04:12:19;;;;;;;14.30;6.72;;;10.40;99.90;;;;;;5029273;28;20080;-87
2024/03/04 04:14:45;;;;;;;13.48;7.13;;;10.40;99.90;;;;;;5029035;28;20030;-88
2024/03/04 04:17:12;;;;;;;13.23;7.03;;;10.50;99.90;;;;;;5027933;28;20056;-89
2024/03/04 04:19:38;;;;;;;11.30;6.88;;;10.40;99.90;;;;;;5027759;28;20048;-88
2024/03/04 04:22:04;;;;;;;15.88;8.02;;;10.40;99.90;;;;;;5031013;28;20495;-89
2024/03/04 04:24:29;;;;;;;15.82;7.45;;;10.50;99.90;;;;;;5040068;28;20033;-88
2024/03/04 04:26:55;;;;;;;12.05;7.05;;;10.50;99.90;;;;;;5027056;28;20026;-88
2024/03/04 04:29:21;;;;;;;12.90;7.28;;;10.50;99.90;;;;;;5031954;28;20476;-88
2024/03/04 04:31:46;;;;;;;18.25;8.32;;;10.50;99.90;;;;;;5029901;28;20017;-88
2024/03/04 04:34:12;;;;;;;12.38;7.32;;;10.40;99.90;;;;;;5030404;28;20026;-88
2024/03/04 04:36:37;;;;;;;12.05;6.82;;;10.50;99.90;;;;;;5030584;28;20032;-88
2024/03/04 04:39:03;;;;;;;11.77;6.53;;;10.40;99.90;;;;;;5030385;28;20389;-88
2024/03/04 04:41:28;;;;;;;20.23;7.72;;;10.50;99.90;;;;;;5030131;28;20017;-88
2024/03/04 04:43:54;;;;;;;13.10;7.07;;;10.40;99.90;;;;;;5030225;28;20041;-89
2024/03/04 04:46:20;;;;;;;14.15;7.40;;;10.50;99.90;;;;;;5019444;28;20507;-89
2024/03/04 04:48:45;;;;;;;14.25;7.32;;;10.50;99.90;;;;;;5023767;28;20505;-88
2024/03/04 04:51:12;;;;;;;14.48;7.20;;;10.40;99.90;;;;;;5030600;28;20022;-88
2024/03/04 04:53:37;;;;;;;15.60;7.20;;;10.50;99.90;;;;;;5023993;28;20472;-89
2024/03/04 04:56:03;;;;;;;16.50;7.35;;;10.40;99.90;;;;;;5030560;28;20044;-88
2024/03/04 04:58:29;;;;;;;15.40;7.40;;;10.50;99.90;;;;;;5026060;28;20024;-88
2024/03/04 05:00:56;;;;;;;12.63;7.18;;;10.50;99.90;;;;;;5028537;28;20028;-88
2024/03/04 05:03:22;;;;;;;13.38;7.03;;;10.50;99.90;;;;;;5022080;28;20021;-90
2024/03/04 05:05:47;;;;;;;15.60;7.82;;;10.50;99.90;;;;;;5031451;28;20553;-88
2024/03/04 05:08:13;;;;;;;13.25;7.65;;;10.40;99.90;;;;;;5030377;28;20391;-88
2024/03/04 05:10:39;;;;;;;14.75;6.80;;;10.50;99.90;;;;;;5030212;28;20021;-88
2024/03/04 05:13:05;;;;;;;16.13;7.85;;;10.50;99.90;;;;;;5029949;28;20022;-88
2024/03/04 05:15:31;;;;;;;15.50;7.28;;;10.50;99.90;;;;;;5030338;28;20073;-89
2024/03/04 05:17:57;;;;;;;13.13;7.43;;;10.40;99.90;;;;;;5028462;28;20033;-89
2024/03/04 05:20:23;;;;;;;16.60;7.38;;;10.40;99.90;;;;;;5019299;28;20104;-90
2024/03/04 05:22:48;;;;;;;15.38;7.25;;;10.40;99.90;;;;;;5030682;28;20136;-88
2024/03/04 05:25:14;;;;;;;15.27;7.93;;;10.50;99.90;;;;;;5031050;28;20068;-89
2024/03/04 05:27:39;;;;;;;12.77;7.20;;;10.50;99.90;;;;;;5032285;28;20047;-88
2024/03/04 05:30:06;;;;;;;18.83;7.60;;;10.50;99.90;;;;;;5031789;28;20103;-89
2024/03/04 05:32:31;;;;;;;14.05;6.95;;;10.40;99.90;;;;;;5028900;28;20026;-89
2024/03/04 05:34:57;;;;;;;18.02;8.65;;;10.50;99.90;;;;;;5023265;28;20021;-88
2024/03/04 05:37:22;;;;;;;19.85;7.88;;;10.50;99.90;;;;;;5033348;28;20052;-88
2024/03/04 05:39:48;;;;;;;17.40;7.97;;;10.50;99.90;;;;;;5030288;28;20029;-88
2024/03/04 05:42:14;;;;;;;16.10;8.10;;;10.50;99.90;;;;;;5025118;28;20025;-89
2024/03/04 05:44:39;;;;;;;22.13;8.32;;;10.50;99.90;;;;;;5033004;28;20574;-88
2024/03/04 05:47:05;;;;;;;15.90;8.88;;;10.40;99.90;;;;;;5033240;28;20026;-89
2024/03/04 05:49:31;;;;;;;19.50;8.13;;;10.50;99.90;;;;;;5027633;28;20029;-87
2024/03/04 05:51:58;;;;;;;18.65;8.90;;;10.50;99.90;;;;;;5038168;28;20021;-88
2024/03/04 05:54:25;;;;;;;17.77;9.30;;;10.50;99.90;;;;;;5032906;28;20395;-89
2024/03/04 05:56:50;;;;;;;17.35;8.48;;;10.50;99.90;;;;;;5029796;28;20084;-88
2024/03/04 05:59:16;;;;;;;21.40;9.45;;;10.50;99.90;;;;;;5048640;28;20454;-88
2024/03/04 06:01:42;;;;;;;23.67;9.30;;;10.50;99.90;;;;;;5032884;28;20547;-88
2024/03/04 06:04:08;;;;;;;23.13;10.70;;;10.50;99.90;;;;;;5022169;28;20030;-88
2024/03/04 06:06:34;;;;;;;23.17;10.40;;;10.50;99.90;;;;;;5033027;28;20025;-88
2024/03/04 06:09:03;;;;;;;21.23;9.70;;;10.50;99.90;;;;;;5032335;28;20029;-88
2024/03/04 06:11:30;;;;;;;25.02;10.80;;;10.50;99.90;;;;;;5032727;28;20108;-88
2024/03/04 06:13:55;;;;;;;22.38;10.98;;;10.50;99.90;;;;;;5025861;28;20053;-88
2024/03/04 06:16:21;;;;;;;22.08;11.27;;;10.50;99.90;;;;;;5033805;28;20029;-88
2024/03/04 06:18:47;;;;;;;25.10;12.20;;;10.50;99.90;;;;;;5028952;28;20408;-88
2024/03/04 06:21:13;;;;;;;23.27;10.45;;;10.50;99.90;;;;;;5022008;28;20396;-89
2024/03/04 06:23:39;;;;;;;23.83;10.48;;;10.50;99.90;;;;;;5029286;28;20033;-89
2024/03/04 06:26:09;;;;;;;22.42;11.05;;;10.50;99.90;;;;;;5032587;28;20029;-88
2024/03/04 06:28:35;;;;;;;26.42;11.80;;;10.50;99.90;;;;;;5025076;28;20014;-89
2024/03/04 06:31:01;;;;;;;21.08;11.35;;;10.50;99.90;;;;;;5039663;28;20138;-89
2024/03/04 06:33:27;;;;;;;29.52;12.48;;;10.40;99.90;;;;;;5019844;28;20017;-89
2024/03/04 06:35:52;;;;;;;26.83;13.52;;;10.40;99.90;;;;;;5027389;28;20028;-90
2024/03/04 06:38:18;;;;;;;27.70;13.18;;;10.50;99.90;;;;;;5032281;28;20502;-88
2024/03/04 06:40:44;;;;;;;31.27;13.38;;;10.40;99.90;;;;;;5029126;28;20054;-89
2024/03/04 06:43:09;;;;;;;28.33;13.07;;;10.40;99.90;;;;;;5028954;28;20029;-88
2024/03/04 06:45:38;;;;;;;29.10;13.88;;;10.40;99.90;;;;;;5032408;28;20021;-89
2024/03/04 06:48:04;;;;;;;31.35;14.02;;;10.50;99.90;;;;;;5032215;28;20036;-89
2024/03/04 06:50:30;;;;;;;28.92;14.15;;;10.40;99.90;;;;;;5032135;28;20018;-89
2024/03/04 06:52:56;;;;;;;32.92;13.98;;;10.50;99.90;;;;;;5026957;28;20030;-89
2024/03/04 06:55:22;;;;;;;34.75;15.25;;;10.50;99.90;;;;;;5026076;28;20032;-89
2024/03/04 06:57:47;;;;;;;35.15;14.77;;;10.40;99.90;;;;;;5032182;28;20029;-88
2024/03/04 07:00:13;;;;;;;30.63;13.38;;;10.40;99.90;;;;;;5024057;28;20028;-89
2024/03/04 07:02:39;;;;;;;34.35;15.55;;;10.40;99.90;;;;;;5030966;28;20033;-89
2024/03/04 07:05:06;;;;;;;38.33;14.35;;;10.50;99.90;;;;;;5028971;28;20025;-89
2024/03/04 07:07:32;;;;;;;38.25;14.70;;;10.40;99.90;;;;;;5030362;28;20403;-89
2024/03/04 07:09:57;;;;;;;32.53;14.77;;;10.50;99.90;;;;;;5031912;28;20018;-88
2024/03/04 07:12:23;;;;;;;35.97;15.90;;;10.50;99.90;;;;;;5031212;28;20388;-88
2024/03/04 07:14:48;;;;;;;38.35;16.08;;;10.50;99.90;;;;;;5032739;28;20028;-88
2024/03/04 07:17:14;;;;;;;36.47;15.68;;;10.50;99.90;;;;;;5029806;28;20554;-89
2024/03/04 07:19:39;;;;;;;32.72;15.88;;;10.40;99.90;;;;;;5026117;28;20484;-89
2024/03/04 07:22:05;;;;;;;37.67;14.93;;;10.40;99.90;;;;;;5032895;28;20033;-89
2024/03/04 07:24:31;;;;;;;29.02;14.45;;;10.40;99.90;;;;;;5030151;28;20028;-89
2024/03/04 07:26:56;;;;;;;39.25;15.65;;;10.50;99.90;;;;;;5025049;28;20065;-89
2024/03/04 07:29:22;;;;;;;37.60;15.20;;;10.50;99.90;;;;;;5031058;28;20037;-89
2024/03/04 07:31:49;;;;;;;33.30;14.60;;;10.50;99.90;;;;;;5028390;28;20092;-88
2024/03/04 07:34:15;;;;;;;34.00;14.68;;;10.50;99.90;;;;;;5029105;28;20018;-89
2024/03/04 07:36:40;;;;;;;42.47;16.55;;;10.50;99.90;;;;;;5032471;28;20021;-88
2024/03/04 07:39:07;;;;;;;38.85;15.65;;;10.50;99.90;;;;;;5026196;28;20025;-89
2024/03/04 07:41:33;;;;;;;34.35;15.63;;;10.50;99.90;;;;;;5030941;28;20656;-89
2024/03/04 07:43:59;;;;;;;37.78;14.50;;;10.50;99.90;;;;;;5031015;28;20033;-90
2024/03/04 07:46:24;;;;;;;32.72;14.82;;;10.50;99.90;;;;;;5030614;28;20029;-88
2024/03/04 07:48:50;;;;;;;34.08;14.48;;;10.50;99.90;;;;;;5027798;28;20021;-89
2024/03/04 07:51:15;;;;;;;30.42;14.43;;;10.50;99.90;;;;;;5030470;28;20087;-89
2024/03/04 07:53:41;;;;;;;34.80;14.27;;;10.50;99.90;;;;;;5025939;28;20080;-89
2024/03/04 07:56:08;;;;;;;33.72;14.73;;;10.50;99.90;;;;;;5027718;28;20033;-88
2024/03/04 07:58:35;;;;;;;34.88;15.63;;;10.50;99.90;;;;;;5022382;28;20033;-88
2024/03/04 08:01:00;;;;;;;35.47;16.45;;;10.50;99.90;;;;;;5027492;28;20025;-89
2024/03/04 08:03:26;;;;;;;31.05;14.55;;;10.50;99.90;;;;;;5030240;28;20037;-89
2024/03/04 08:05:52;;;;;;;32.67;14.30;;;10.50;99.90;;;;;;5015782;28;20026;-88
2024/03/04 08:08:17;;;;;;;32.35;14.77;;;10.50;99.90;;;;;;5022288;28;20026;-89
2024/03/04 08:10:43;;;;;;;36.00;14.80;;;10.50;99.90;;;;;;5027614;28;20025;-88
2024/03/04 08:13:08;;;;;;;28.75;12.88;;;10.50;99.90;;;;;;5030668;28;20033;-89
2024/03/04 08:15:34;;;;;;;40.00;14.10;;;10.50;99.90;;;;;;5031055;28;20543;-89
2024/03/04 08:18:00;;;;;;;34.40;13.80;;;10.50;99.90;;;;;;5026369;28;20554;-89
2024/03/04 08:20:25;;;;;;;39.17;15.07;;;10.50;99.90;;;;;;5030096;28;20026;-88
2024/03/04 08:22:51;;;;;;;34.20;15.27;;;10.50;99.90;;;;;;5029916;28;20051;-89
2024/03/04 08:25:17;;;;;;;36.78;14.80;;;10.50;99.90;;;;;;5029369;28;20037;-89
2024/03/04 08:27:43;;;;;;;34.25;15.30;;;10.60;99.90;;;;;;5024237;28;20033;-88
2024/03/04 08:30:13;;;;;;;37.35;15.27;;;10.50;99.90;;;;;;5030607;28;20029;-89
2024/03/04 08:32:41;;;;;;;38.05;13.95;;;10.50;99.90;;;;;;5017953;28;20033;-90
2024/03/04 08:35:07;;;;;;;35.17;14.45;;;10.50;99.90;;;;;;5030596;28;20026;-89
2024/03/04 08:37:33;;;;;;;35.88;13.27;;;10.50;99.90;;;;;;5024480;28;20446;-89
2024/03/04 08:40:03;;;;;;;39.42;15.55;;;10.50;99.90;;;;;;5030593;28;20060;-88
2024/03/04 08:42:28;;;;;;;29.73;13.73;;;10.50;99.90;;;;;;5030408;28;20033;-89
2024/03/04 08:44:54;;;;;;;34.50;14.50;;;10.50;99.90;;;;;;5029269;28;20041;-89
2024/03/04 08:47:19;;;;;;;34.92;14.73;;;10.50;99.90;;;;;;5030582;28;20040;-89
2024/03/04 08:49:46;;;;;;;32.38;14.63;;;10.50;99.90;;;;;;5031592;28;20026;-89
2024/03/04 08:52:12;;;;;;;32.08;13.73;;;10.50;99.90;;;;;;5033356;28;20025;-89
2024/03/04 08:54:37;;;;;;;38.00;14.90;;;10.50;99.90;;;;;;5024594;28;20024;-88
2024/03/04 08:57:03;;;;;;;33.75;13.50;;;10.50;99.90;;;;;;5027450;28;20025;-88
2024/03/04 08:59:29;;;;;;;33.92;13.75;;;10.60;99.90;;;;;;5034169;28;20045;-89
2024/03/04 09:01:54;;;;;;;30.92;13.50;;;10.50;99.90;;;;;;5026421;28;20040;-89
2024/03/04 09:04:20;;;;;;;29.77;13.25;;;10.50;99.90;;;;;;5032095;28;20116;-88
2024/03/04 09:06:45;;;;;;;31.75;13.70;;;10.50;99.90;;;;;;5024124;28;20332;-89
2024/03/04 09:09:11;;;;;;;35.65;13.48;;;10.60;99.90;;;;;;5023621;28;20026;-89
2024/03/04 09:11:36;;;;;;;36.20;14.13;;;10.50;99.90;;;;;;5033638;28;20021;-89
2024/03/04 09:14:02;;;;;;;33.72;14.23;;;10.60;99.90;;;;;;5024644;28;20014;-89
2024/03/04 09:16:28;;;;;;;28.95;12.65;;;10.50;99.90;;;;;;5033976;28;20021;-88
2024/03/04 09:18:53;;;;;;;30.23;12.35;;;10.60;99.90;;;;;;5027280;28;20033;-89
2024/03/04 09:21:19;;;;;;;30.23;13.18;;;10.60;99.90;;;;;;5034852;28;20027;-88
2024/03/04 09:23:47;;;;;;;30.52;13.32;;;10.60;99.90;;;;;;5027988;28;20029;-87
2024/03/04 09:26:13;;;;;;;28.60;11.90;;;10.60;99.90;;;;;;5029706;28;20034;-88
2024/03/04 09:28:39;;;;;;;26.75;12.23;;;10.60;99.90;;;;;;5030877;28;20033;-88
2024/03/04 09:31:05;;;;;;;27.88;12.55;;;10.60;99.90;;;;;;5030534;28;20018;-87
2024/03/04 09:33:30;;;;;;;27.52;11.38;;;10.50;99.90;;;;;;5034316;28;20083;-89
2024/03/04 09:35:56;;;;;;;28.35;12.73;;;10.60;99.90;;;;;;5033494;28;20369;-89
2024/03/04 09:38:21;;;;;;;34.15;13.23;;;10.50;99.90;;;;;;5029902;28;20029;-89
2024/03/04 09:40:51;;;;;;;29.08;11.73;;;10.60;99.90;;;;;;5027461;28;20270;-88
2024/03/04 09:43:19;;;;;;;30.63;12.38;;;10.50;99.90;;;;;;5029979;28;20037;-89
2024/03/04 09:45:48;;;;;;;31.23;12.32;;;10.50;99.90;;;;;;5026355;28;20017;-88
2024/03/04 09:48:16;;;;;;;27.38;11.93;;;10.50;99.90;;;;;;5020144;28;20025;-88
2024/03/04 09:50:41;;;;;;;29.83;11.32;;;10.50;99.90;;;;;;5031189;28;20022;-89
2024/03/04 09:53:09;;;;;;;30.52;11.68;;;10.50;99.90;;;;;;5031746;28;20025;-88
2024/03/04 09:55:35;;;;;;;27.60;11.15;;;10.50;99.90;;;;;;5026338;28;20032;-89
2024/03/04 09:58:01;;;;;;;26.13;11.45;;;10.50;99.90;;;;;;5026820;28;20109;-89
2024/03/04 10:00:28;;;;;;;25.30;12.25;;;10.50;99.90;;;;;;5033057;28;20097;-88
2024/03/04 10:02:55;;;;;;;27.60;11.35;;;10.50;99.90;;;;;;5032169;28;20029;-88
2024/03/04 10:05:21;;;;;;;29.35;12.35;;;10.50;99.90;;;;;;5031878;28;20022;-89
2024/03/04 10:07:48;;;;;;;28.98;11.20;;;10.50;99.90;;;;;;5033498;28;20040;-89
2024/03/04 10:10:15;;;;;;;27.92;12.40;;;10.50;99.90;;;;;;5033005;28;20024;-88
2024/03/04 10:12:41;;;;;;;27.50;11.23;;;10.50;99.90;;;;;;5027173;28;20022;-90
2024/03/04 10:15:09;;;;;;;29.63;11.45;;;10.60;99.90;;;;;;5029831;28;20092;-89
2024/03/04 10:17:38;;;;;;;25.73;10.70;;;10.60;99.90;;;;;;5029435;28;20080;-89
2024/03/04 10:20:10;;;;;;;25.65;11.15;;;10.60;99.90;;;;;;5031237;28;20140;-89
2024/03/04 10:22:40;;;;;;;27.88;12.23;;;10.50;99.90;;;;;;5031580;28;20021;-87
2024/03/04 10:25:10;;;;;;;29.80;12.13;;;10.60;99.90;;;;;;5029489;28;20030;-89
2024/03/04 10:27:38;;;;;;;28.58;11.00;;;10.50;99.90;;;;;;5028080;28;20121;-87
2024/03/04 10:30:13;;;;;;;26.98;12.93;;;10.50;99.90;;;;;;5033408;28;20072;-89
2024/03/04 10:32:49;;;;;;;32.03;11.68;;;10.50;99.90;;;;;;5032581;28;20108;-89
2024/03/04 10:35:16;;;;;;;25.85;10.73;;;10.60;99.90;;;;;;5021748;28;20049;-88
2024/03/04 10:37:42;;;;;;;27.13;11.02;;;10.50;99.90;;;;;;5021375;28;20112;-89
2024/03/04 10:40:09;;;;;;;32.40;12.18;;;10.60;99.90;;;;;;5032297;28;20076;-89
2024/03/04 10:42:36;;;;;;;30.30;12.45;;;10.60;99.90;;;;;;5033478;28;20025;-89
2024/03/04 10:45:04;;;;;;;27.25;11.43;;;10.60;99.90;;;;;;5028134;28;20033;-89
2024/03/04 10:47:32;;;;;;;27.60;11.50;;;10.60;99.90;;;;;;5030292;28;20041;-88
2024/03/04 10:49:58;;;;;;;25.88;11.40;;;10.60;99.90;;;;;;5024433;28;20151;-89
2024/03/04 10:52:24;;;;;;;25.67;10.63;;;10.60;99.90;;;;;;5030267;28;20101;-89
2024/03/04 10:54:49;;;;;;;29.48;11.75;;;10.60;99.90;;;;;;5021477;28;20480;-89
2024/03/04 10:57:28;;;;;;;34.97;12.55;;;10.60;99.90;;;;;;5032146;28;20035;-88
2024/03/04 11:00:17;;;;;;;27.65;11.43;;;10.60;99.90;;;;;;5026504;28;20028;-89
2024/03/04 11:02:50;;;;;;;28.63;11.45;;;10.60;99.90;;;;;;5024146;28;20101;-88
2024/03/04 11:05:21;;;;;;;26.70;11.63;;;10.60;99.90;;;;;;5031047;28;20029;-90
2024/03/04 11:07:48;;;;;;;21.63;11.05;;;10.60;99.90;;;;;;5024280;28;20025;-89
2024/03/04 11:10:34;;;;;;;29.27;11.07;;;10.60;99.90;;;;;;5024607;28;20116;-89
2024/03/04 11:13:24;;;;;;;28.63;10.27;;;10.60;99.90;;;;;;5028220;28;20037;-89
2024/03/04 11:16:00;;;;;;;37.97;12.05;;;10.60;99.90;;;;;;5019517;28;20036;-89
2024/03/04 11:19:03;;;;;;;28.35;11.07;;;10.60;99.90;;;;;;5019398;28;20026;-89
2024/03/04 11:21:30;;;;;;;26.48;10.88;;;10.60;99.90;;;;;;5030982;28;20087;-89
2024/03/04 11:23:56;;;;;;;29.95;11.63;;;10.60;99.90;;;;;;5039183;28;20025;-90
2024/03/04 11:26:23;;;;;;;28.20;11.13;;;10.60;99.90;;;;;;5027088;28;20026;-88
2024/03/04 11:28:51;;;;;;;29.27;11.45;;;10.60;99.90;;;;;;5030404;28;20025;-88
2024/03/04 11:31:27;;;;;;;24.58;10.95;;;10.60;99.90;;;;;;5023943;28;20026;-89
2024/03/04 11:34:05;;;;;;;25.80;10.40;;;10.60;99.90;;;;;;5025292;28;20022;-89
2024/03/04 11:36:32;;;;;;;25.63;10.85;;;10.60;99.90;;;;;;5028743;28;20112;-89
2024/03/04 11:38:59;;;;;;;26.52;10.50;;;10.60;99.90;;;;;;5031358;28;20029;-88
2024/03/04 11:41:48;;;;;;;28.67;10.20;;;10.60;99.90;;;;;;5027556;28;20033;-89
2024/03/04 11:44:14;;;;;;;22.45;9.25;;;10.60;99.90;;;;;;5028259;28;20029;-89
2024/03/04 11:46:42;;;;;;;27.10;10.85;;;10.60;99.90;;;;;;5030818;28;20396;-89
2024/03/04 11:49:27;;;;;;;30.52;10.57;;;10.50;99.90;;;;;;5031150;28;20109;-89
2024/03/04 11:52:06;;;;;;;25.73;10.00;;;10.60;99.90;;;;;;5015007;28;20028;-89
2024/03/04 11:54:34;;;;;;;25.35;9.95;;;10.60;99.90;;;;;;5023928;28;20064;-89
2024/03/04 11:57:01;;;;;;;22.85;9.63;;;10.50;99.90;;;;;;5026405;28;20056;-88
2024/03/04 11:59:27;;;;;;;22.48;9.57;;;10.60;99.90;;;;;;5030828;28;20026;-89
2024/03/04 12:01:53;;;;;;;21.50;8.02;;;10.50;99.90;;;;;;5031401;28;20029;-89
2024/03/04 12:04:22;;;;;;;20.10;9.35;;;10.50;99.90;;;;;;5022895;28;20057;-87
2024/03/04 12:06:48;;;;;;;20.65;8.93;;;10.50;99.90;;;;;;5027375;28;20493;-89
2024/03/04 12:09:17;;;;;;;19.55;9.38;;;10.50;99.90;;;;;;5030658;28;20037;-89
2024/03/04 12:11:43;;;;;;;23.65;9.02;;;10.50;99.90;;;;;;5030844;28;20116;-89
2024/03/04 12:14:09;;;;;;;25.15;9.30;;;10.50;99.90;;;;;;5026138;28;20538;-89
2024/03/04 12:16:34;;;;;;;20.20;8.43;;;10.50;99.90;;;;;;5030917;28;20029;-90
2024/03/04 12:19:00;;;;;;;24.25;8.60;;;10.50;99.90;;;;;;5030806;28;20136;-89
2024/03/04 12:21:29;;;;;;;21.15;8.18;;;10.50;99.90;;;;;;5028994;28;20080;-89
2024/03/04 12:23:57;;;;;;;23.77;8.80;;;10.50;99.90;;;;;;5025521;28;20036;-89
2024/03/04 12:26:23;;;;;;;15.93;7.90;;;10.50;99.90;;;;;;5027909;28;20022;-89
2024/03/04 12:29:03;;;;;;;14.75;7.03;;;10.60;99.90;;;;;;5029792;28;20514;-88
2024/03/04 12:31:29;;;;;;;14.57;7.32;;;10.50;99.90;;;;;;5033296;28;20387;-89